sensor_id;sensor_type;location;lat;lon;timestamp;temperature;humidity
45435;DHT22;31183;47.404;8.500;2023-05-14T00:00:40;13.00;99.90
45435;DHT22;31183;47.404;8.500;2023-05-14T00:03:06;13.00;99.90
45435;DHT22;31183;47.404;8.500;2023-05-14T00:05:33;12.80;99.90
45435;DHT22;31183;47.404;8.500;2023-05-14T00:08:00;12.90;99.90
45435;DHT22;31183;47.404;8.500;2023-05-14T00:10:27;12.90;99.90
45435;DHT22;31183;47.404;8.500;2023-05-14T00:12:53;12.90;99.90
45435;DHT22;31183;47.404;8.500;2023-05-14T00:15:20;12.80;99.90
45435;DHT22;31183;47.404;8.500;2023-05-14T00:17:46;12.80;99.90
45435;DHT22;31183;47.404;8.500;2023-05-14T00:20:13;12.70;99.90
45435;DHT22;31183;47.404;8.500;2023-05-14T00:22:40;12.60;99.90
45435;DHT22;31183;47.404;8.500;2023-05-14T00:25:07;12.60;99.90
45435;DHT22;31183;47.404;8.500;2023-05-14T00:27:34;12.60;99.90
45435;DHT22;31183;47.404;8.500;2023-05-14T00:30:06;12.80;99.90
45435;DHT22;31183;47.404;8.500;2023-05-14T00:32:32;13.00;99.90
45435;DHT22;31183;47.404;8.500;2023-05-14T00:34:59;13.10;99.90
45435;DHT22;31183;47.404;8.500;2023-05-14T00:37:26;13.30;99.90
45435;DHT22;31183;47.404;8.500;2023-05-14T00:39:52;13.40;99.90
45435;DHT22;31183;47.404;8.500;2023-05-14T00:42:19;13.40;99.90
45435;DHT22;31183;47.404;8.500;2023-05-14T00:44:45;13.50;99.90
45435;DHT22;31183;47.404;8.500;2023-05-14T00:47:12;13.50;99.90
45435;DHT22;31183;47.404;8.500;2023-05-14T00:49:39;13.60;99.90
45435;DHT22;31183;47.404;8.500;2023-05-14T00:52:06;13.60;99.90
45435;DHT22;31183;47.404;8.500;2023-05-14T00:54:34;13.60;99.90
45435;DHT22;31183;47.404;8.500;2023-05-14T00:57:02;13.60;99.90
45435;DHT22;31183;47.404;8.500;2023-05-14T00:59:30;13.70;99.90
45435;DHT22;31183;47.404;8.500;2023-05-14T01:01:56;13.70;99.90
45435;DHT22;31183;47.404;8.500;2023-05-14T01:04:23;13.70;99.90
45435;DHT22;31183;47.404;8.500;2023-05-14T01:07:19;13.70;99.90
45435;DHT22;31183;47.404;8.500;2023-05-14T01:12:45;13.60;99.90
45435;DHT22;31183;47.404;8.500;2023-05-14T01:15:21;13.50;99.90
45435;DHT22;31183;47.404;8.500;2023-05-14T01:18:03;13.40;99.90
45435;DHT22;31183;47.404;8.500;2023-05-14T01:20:30;13.10;99.90
45435;DHT22;31183;47.404;8.500;2023-05-14T01:22:57;13.10;99.90
45435;DHT22;31183;47.404;8.500;2023-05-14T01:25:24;12.90;99.90
45435;DHT22;31183;47.404;8.500;2023-05-14T01:32:52;12.90;99.90
45435;DHT22;31183;47.404;8.500;2023-05-14T01:35:24;12.80;99.90
45435;DHT22;31183;47.404;8.500;2023-05-14T01:37:56;12.80;99.90
45435;DHT22;31183;47.404;8.500;2023-05-14T01:40:24;12.90;99.90
45435;DHT22;31183;47.404;8.500;2023-05-14T01:42:52;12.70;99.90
45435;DHT22;31183;47.404;8.500;2023-05-14T01:45:20;12.70;99.90
45435;DHT22;31183;47.404;8.500;2023-05-14T01:47:47;12.80;99.90
45435;DHT22;31183;47.404;8.500;2023-05-14T01:50:14;12.90;99.90
45435;DHT22;31183;47.404;8.500;2023-05-14T01:52:40;13.00;99.90
45435;DHT22;31183;47.404;8.500;2023-05-14T01:55:07;13.10;99.90
45435;DHT22;31183;47.404;8.500;2023-05-14T01:57:34;13.20;99.90
45435;DHT22;31183;47.404;8.500;2023-05-14T02:00:01;13.20;99.90
45435;DHT22;31183;47.404;8.500;2023-05-14T02:02:27;13.30;99.90
45435;DHT22;31183;47.404;8.500;2023-05-14T02:04:54;13.30;99.90
45435;DHT22;31183;47.404;8.500;2023-05-14T02:07:21;13.30;99.90
45435;DHT22;31183;47.404;8.500;2023-05-14T02:09:47;13.40;99.90
45435;DHT22;31183;47.404;8.500;2023-05-14T02:12:14;13.40;99.90
45435;DHT22;31183;47.404;8.500;2023-05-14T02:14:40;13.30;99.90
45435;DHT22;31183;47.404;8.500;2023-05-14T02:17:07;13.10;99.90
45435;DHT22;31183;47.404;8.500;2023-05-14T02:19:34;13.00;99.90
45435;DHT22;31183;47.404;8.500;2023-05-14T02:22:00;13.10;99.90
45435;DHT22;31183;47.404;8.500;2023-05-14T02:24:27;13.10;99.90
45435;DHT22;31183;47.404;8.500;2023-05-14T02:26:54;13.10;99.90
45435;DHT22;31183;47.404;8.500;2023-05-14T02:29:20;13.10;99.90
45435;DHT22;31183;47.404;8.500;2023-05-14T02:31:47;13.10;99.90
45435;DHT22;31183;47.404;8.500;2023-05-14T02:34:13;13.20;99.90
45435;DHT22;31183;47.404;8.500;2023-05-14T02:36:40;13.30;99.90
45435;DHT22;31183;47.404;8.500;2023-05-14T02:39:07;13.40;99.90
45435;DHT22;31183;47.404;8.500;2023-05-14T02:41:33;13.40;99.90
45435;DHT22;31183;47.404;8.500;2023-05-14T02:44:00;13.50;99.90
45435;DHT22;31183;47.404;8.500;2023-05-14T02:46:26;13.50;99.90
45435;DHT22;31183;47.404;8.500;2023-05-14T02:48:53;13.50;99.90
45435;DHT22;31183;47.404;8.500;2023-05-14T02:51:20;13.50;99.90
45435;DHT22;31183;47.404;8.500;2023-05-14T02:53:46;13.50;99.90
45435;DHT22;31183;47.404;8.500;2023-05-14T02:56:13;13.50;99.90
45435;DHT22;31183;47.404;8.500;2023-05-14T02:58:40;13.50;99.90
45435;DHT22;31183;47.404;8.500;2023-05-14T03:01:07;13.50;99.90
45435;DHT22;31183;47.404;8.500;2023-05-14T03:03:35;13.50;99.90
45435;DHT22;31183;47.404;8.500;2023-05-14T03:06:02;13.50;99.90
45435;DHT22;31183;47.404;8.500;2023-05-14T03:08:28;13.50;99.90
45435;DHT22;31183;47.404;8.500;2023-05-14T03:10:55;13.50;99.90
45435;DHT22;31183;47.404;8.500;2023-05-14T03:13:22;13.50;99.90
45435;DHT22;31183;47.404;8.500;2023-05-14T03:15:48;13.50;99.90
45435;DHT22;31183;47.404;8.500;2023-05-14T03:18:20;13.50;99.90
45435;DHT22;31183;47.404;8.500;2023-05-14T03:20:46;13.50;99.90
45435;DHT22;31183;47.404;8.500;2023-05-14T03:23:13;13.50;99.90
45435;DHT22;31183;47.404;8.500;2023-05-14T03:25:40;13.50;99.90
45435;DHT22;31183;47.404;8.500;2023-05-14T03:28:07;13.50;99.90
45435;DHT22;31183;47.404;8.500;2023-05-14T03:30:34;13.50;99.90
45435;DHT22;31183;47.404;8.500;2023-05-14T03:33:00;13.50;99.90
45435;DHT22;31183;47.404;8.500;2023-05-14T03:35:27;13.40;99.90
45435;DHT22;31183;47.404;8.500;2023-05-14T03:37:54;13.40;99.90
45435;DHT22;31183;47.404;8.500;2023-05-14T03:40:24;13.40;99.90
45435;DHT22;31183;47.404;8.500;2023-05-14T03:42:51;13.40;99.90
45435;DHT22;31183;47.404;8.500;2023-05-14T03:45:17;13.40;99.90
45435;DHT22;31183;47.404;8.500;2023-05-14T03:47:44;13.40;99.90
45435;DHT22;31183;47.404;8.500;2023-05-14T03:50:11;13.40;99.90
45435;DHT22;31183;47.404;8.500;2023-05-14T03:52:37;13.40;99.90
45435;DHT22;31183;47.404;8.500;2023-05-14T03:55:04;13.30;99.90
45435;DHT22;31183;47.404;8.500;2023-05-14T03:57:31;13.30;99.90
45435;DHT22;31183;47.404;8.500;2023-05-14T03:59:58;13.30;99.90
45435;DHT22;31183;47.404;8.500;2023-05-14T04:02:24;13.40;99.90
45435;DHT22;31183;47.404;8.500;2023-05-14T04:04:51;13.40;99.90
45435;DHT22;31183;47.404;8.500;2023-05-14T04:07:18;13.40;99.90
45435;DHT22;31183;47.404;8.500;2023-05-14T04:09:44;13.40;99.90
45435;DHT22;31183;47.404;8.500;2023-05-14T04:12:11;13.30;99.90
45435;DHT22;31183;47.404;8.500;2023-05-14T04:14:37;13.30;99.90
45435;DHT22;31183;47.404;8.500;2023-05-14T04:17:04;13.30;99.90
45435;DHT22;31183;47.404;8.500;2023-05-14T04:19:31;13.30;99.90
45435;DHT22;31183;47.404;8.500;2023-05-14T04:21:57;13.40;99.90
45435;DHT22;31183;47.404;8.500;2023-05-14T04:24:24;13.40;99.90
45435;DHT22;31183;47.404;8.500;2023-05-14T04:26:50;13.30;99.90
45435;DHT22;31183;47.404;8.500;2023-05-14T04:29:17;13.30;99.90
45435;DHT22;31183;47.404;8.500;2023-05-14T04:31:43;13.20;99.90
45435;DHT22;31183;47.404;8.500;2023-05-14T04:34:10;13.10;99.90
45435;DHT22;31183;47.404;8.500;2023-05-14T04:36:37;13.10;99.90
45435;DHT22;31183;47.404;8.500;2023-05-14T04:39:03;13.20;99.90
45435;DHT22;31183;47.404;8.500;2023-05-14T04:41:31;13.20;99.90
45435;DHT22;31183;47.404;8.500;2023-05-14T04:43:59;13.30;99.90
45435;DHT22;31183;47.404;8.500;2023-05-14T04:46:27;13.30;99.90
45435;DHT22;31183;47.404;8.500;2023-05-14T04:48:54;13.30;99.90
45435;DHT22;31183;47.404;8.500;2023-05-14T04:51:22;13.30;99.90
45435;DHT22;31183;47.404;8.500;2023-05-14T04:53:48;13.30;99.90
45435;DHT22;31183;47.404;8.500;2023-05-14T04:56:15;13.40;99.90
45435;DHT22;31183;47.404;8.500;2023-05-14T04:58:42;13.40;99.90
45435;DHT22;31183;47.404;8.500;2023-05-14T05:01:08;13.50;99.90
45435;DHT22;31183;47.404;8.500;2023-05-14T05:03:35;13.40;99.90
45435;DHT22;31183;47.404;8.500;2023-05-14T05:06:02;13.40;99.90
45435;DHT22;31183;47.404;8.500;2023-05-14T05:08:29;13.40;99.90
45435;DHT22;31183;47.404;8.500;2023-05-14T05:10:56;13.40;99.90
45435;DHT22;31183;47.404;8.500;2023-05-14T05:13:23;13.40;99.90
45435;DHT22;31183;47.404;8.500;2023-05-14T05:15:49;13.50;99.90
45435;DHT22;31183;47.404;8.500;2023-05-14T05:18:16;13.50;99.90
45435;DHT22;31183;47.404;8.500;2023-05-14T05:20:43;13.50;99.90
45435;DHT22;31183;47.404;8.500;2023-05-14T05:23:09;13.50;99.90
45435;DHT22;31183;47.404;8.500;2023-05-14T05:25:36;13.50;99.90
45435;DHT22;31183;47.404;8.500;2023-05-14T05:28:02;13.60;99.90
45435;DHT22;31183;47.404;8.500;2023-05-14T05:30:29;13.60;99.90
45435;DHT22;31183;47.404;8.500;2023-05-14T05:32:56;13.50;99.90
45435;DHT22;31183;47.404;8.500;2023-05-14T05:35:23;13.60;99.90
45435;DHT22;31183;47.404;8.500;2023-05-14T05:37:50;13.60;99.90
45435;DHT22;31183;47.404;8.500;2023-05-14T05:40:16;13.50;99.90
45435;DHT22;31183;47.404;8.500;2023-05-14T05:42:43;13.40;99.90
45435;DHT22;31183;47.404;8.500;2023-05-14T05:45:09;13.40;99.90
45435;DHT22;31183;47.404;8.500;2023-05-14T05:47:36;13.50;99.90
45435;DHT22;31183;47.404;8.500;2023-05-14T05:50:03;13.50;99.90
45435;DHT22;31183;47.404;8.500;2023-05-14T05:52:30;13.50;99.90
45435;DHT22;31183;47.404;8.500;2023-05-14T05:54:56;13.50;99.90
45435;DHT22;31183;47.404;8.500;2023-05-14T05:57:23;13.60;99.90
45435;DHT22;31183;47.404;8.500;2023-05-14T05:59:52;13.60;99.90
45435;DHT22;31183;47.404;8.500;2023-05-14T06:02:19;13.50;99.90
45435;DHT22;31183;47.404;8.500;2023-05-14T06:04:45;13.60;99.90
45435;DHT22;31183;47.404;8.500;2023-05-14T06:07:12;13.70;99.90
45435;DHT22;31183;47.404;8.500;2023-05-14T06:09:39;13.70;99.90
45435;DHT22;31183;47.404;8.500;2023-05-14T06:12:05;13.70;99.90
45435;DHT22;31183;47.404;8.500;2023-05-14T06:14:32;13.50;99.90
45435;DHT22;31183;47.404;8.500;2023-05-14T06:16:59;13.50;99.90
45435;DHT22;31183;47.404;8.500;2023-05-14T06:19:25;13.50;99.90
45435;DHT22;31183;47.404;8.500;2023-05-14T06:21:52;13.50;99.90
45435;DHT22;31183;47.404;8.500;2023-05-14T06:24:18;13.60;99.90
45435;DHT22;31183;47.404;8.500;2023-05-14T06:26:45;13.60;99.90
45435;DHT22;31183;47.404;8.500;2023-05-14T06:29:14;13.60;99.90
45435;DHT22;31183;47.404;8.500;2023-05-14T06:31:40;13.50;99.90
45435;DHT22;31183;47.404;8.500;2023-05-14T06:34:07;13.50;99.90
45435;DHT22;31183;47.404;8.500;2023-05-14T06:36:34;13.50;99.90
45435;DHT22;31183;47.404;8.500;2023-05-14T06:39:01;13.40;99.90
45435;DHT22;31183;47.404;8.500;2023-05-14T06:41:28;13.40;99.90
45435;DHT22;31183;47.404;8.500;2023-05-14T06:43:55;13.40;99.90
45435;DHT22;31183;47.404;8.500;2023-05-14T06:46:21;13.40;99.90
45435;DHT22;31183;47.404;8.500;2023-05-14T06:48:48;13.40;99.90
45435;DHT22;31183;47.404;8.500;2023-05-14T06:51:15;13.50;99.90
45435;DHT22;31183;47.404;8.500;2023-05-14T06:53:41;13.40;99.90
45435;DHT22;31183;47.404;8.500;2023-05-14T06:56:08;13.40;99.90
45435;DHT22;31183;47.404;8.500;2023-05-14T06:58:34;13.30;99.90
45435;DHT22;31183;47.404;8.500;2023-05-14T07:01:01;13.50;99.90
45435;DHT22;31183;47.404;8.500;2023-05-14T07:03:28;13.40;99.90
45435;DHT22;31183;47.404;8.500;2023-05-14T07:05:54;13.40;99.90
45435;DHT22;31183;47.404;8.500;2023-05-14T07:08:21;13.40;99.90
45435;DHT22;31183;47.404;8.500;2023-05-14T07:10:47;13.30;99.90
45435;DHT22;31183;47.404;8.500;2023-05-14T07:13:14;13.30;99.90
45435;DHT22;31183;47.404;8.500;2023-05-14T07:15:41;13.30;99.90
45435;DHT22;31183;47.404;8.500;2023-05-14T07:18:07;13.30;99.90
45435;DHT22;31183;47.404;8.500;2023-05-14T07:20:34;13.50;99.90
45435;DHT22;31183;47.404;8.500;2023-05-14T07:23:00;13.50;99.90
45435;DHT22;31183;47.404;8.500;2023-05-14T07:25:27;13.50;99.90
45435;DHT22;31183;47.404;8.500;2023-05-14T07:27:54;13.50;99.90
45435;DHT22;31183;47.404;8.500;2023-05-14T07:30:21;13.60;99.90
45435;DHT22;31183;47.404;8.500;2023-05-14T07:32:48;13.40;99.90
45435;DHT22;31183;47.404;8.500;2023-05-14T07:35:14;13.50;99.90
45435;DHT22;31183;47.404;8.500;2023-05-14T07:37:41;13.50;99.90
45435;DHT22;31183;47.404;8.500;2023-05-14T07:40:08;13.60;99.90
45435;DHT22;31183;47.404;8.500;2023-05-14T07:42:35;13.60;99.90
45435;DHT22;31183;47.404;8.500;2023-05-14T07:45:04;13.60;99.90
45435;DHT22;31183;47.404;8.500;2023-05-14T07:47:30;13.80;99.90
45435;DHT22;31183;47.404;8.500;2023-05-14T07:49:58;13.80;99.90
45435;DHT22;31183;47.404;8.500;2023-05-14T07:52:24;14.00;99.90
45435;DHT22;31183;47.404;8.500;2023-05-14T07:54:51;14.10;99.90
45435;DHT22;31183;47.404;8.500;2023-05-14T07:57:18;14.20;99.90
45435;DHT22;31183;47.404;8.500;2023-05-14T07:59:47;14.30;99.90
45435;DHT22;31183;47.404;8.500;2023-05-14T08:02:13;14.60;99.90
45435;DHT22;31183;47.404;8.500;2023-05-14T08:04:42;14.80;99.90
45435;DHT22;31183;47.404;8.500;2023-05-14T08:07:08;14.90;99.90
45435;DHT22;31183;47.404;8.500;2023-05-14T08:09:35;14.90;99.90
45435;DHT22;31183;47.404;8.500;2023-05-14T08:12:02;15.10;99.90
45435;DHT22;31183;47.404;8.500;2023-05-14T08:14:28;15.20;99.90
45435;DHT22;31183;47.404;8.500;2023-05-14T08:16:55;15.20;99.90
45435;DHT22;31183;47.404;8.500;2023-05-14T08:19:22;15.40;99.90
45435;DHT22;31183;47.404;8.500;2023-05-14T08:21:49;15.40;99.90
45435;DHT22;31183;47.404;8.500;2023-05-14T08:24:17;15.30;99.90
45435;DHT22;31183;47.404;8.500;2023-05-14T08:26:44;15.30;99.90
45435;DHT22;31183;47.404;8.500;2023-05-14T08:29:10;15.30;99.90
45435;DHT22;31183;47.404;8.500;2023-05-14T08:31:41;15.30;99.90
45435;DHT22;31183;47.404;8.500;2023-05-14T08:34:07;15.30;99.90
45435;DHT22;31183;47.404;8.500;2023-05-14T08:36:34;15.20;99.90
45435;DHT22;31183;47.404;8.500;2023-05-14T08:39:00;15.20;99.90
45435;DHT22;31183;47.404;8.500;2023-05-14T08:41:27;15.20;99.90
45435;DHT22;31183;47.404;8.500;2023-05-14T08:44:32;15.10;99.90
45435;DHT22;31183;47.404;8.500;2023-05-14T08:47:00;15.10;99.90
45435;DHT22;31183;47.404;8.500;2023-05-14T08:49:41;15.10;99.90
45435;DHT22;31183;47.404;8.500;2023-05-14T08:52:08;15.10;99.90
45435;DHT22;31183;47.404;8.500;2023-05-14T08:54:35;15.10;99.90
45435;DHT22;31183;47.404;8.500;2023-05-14T08:57:02;15.30;99.90
45435;DHT22;31183;47.404;8.500;2023-05-14T08:59:30;15.50;99.90
45435;DHT22;31183;47.404;8.500;2023-05-14T09:02:01;15.70;99.90
45435;DHT22;31183;47.404;8.500;2023-05-14T09:04:28;16.20;99.90
45435;DHT22;31183;47.404;8.500;2023-05-14T09:06:55;16.40;99.90
45435;DHT22;31183;47.404;8.500;2023-05-14T09:09:22;16.70;99.90
45435;DHT22;31183;47.404;8.500;2023-05-14T09:11:50;17.20;99.90
45435;DHT22;31183;47.404;8.500;2023-05-14T09:14:18;17.60;99.90
45435;DHT22;31183;47.404;8.500;2023-05-14T09:16:46;17.60;99.90
45435;DHT22;31183;47.404;8.500;2023-05-14T09:19:14;17.50;99.90
45435;DHT22;31183;47.404;8.500;2023-05-14T09:21:43;17.50;99.90
45435;DHT22;31183;47.404;8.500;2023-05-14T09:24:24;17.40;99.90
45435;DHT22;31183;47.404;8.500;2023-05-14T09:26:53;17.40;99.90
45435;DHT22;31183;47.404;8.500;2023-05-14T09:29:20;17.30;99.90
45435;DHT22;31183;47.404;8.500;2023-05-14T09:31:49;17.20;99.90
45435;DHT22;31183;47.404;8.500;2023-05-14T09:34:28;17.00;99.90
45435;DHT22;31183;47.404;8.500;2023-05-14T09:37:03;16.80;99.90
45435;DHT22;31183;47.404;8.500;2023-05-14T09:39:30;16.70;99.90
45435;DHT22;31183;47.404;8.500;2023-05-14T09:41:57;16.50;99.90
45435;DHT22;31183;47.404;8.500;2023-05-14T09:44:24;16.30;99.90
45435;DHT22;31183;47.404;8.500;2023-05-14T09:46:51;16.30;99.90
45435;DHT22;31183;47.404;8.500;2023-05-14T09:49:19;16.40;99.90
45435;DHT22;31183;47.404;8.500;2023-05-14T09:51:47;16.50;99.90
45435;DHT22;31183;47.404;8.500;2023-05-14T09:54:13;16.60;99.90
45435;DHT22;31183;47.404;8.500;2023-05-14T09:56:41;16.60;99.90
45435;DHT22;31183;47.404;8.500;2023-05-14T09:59:08;16.70;99.90
45435;DHT22;31183;47.404;8.500;2023-05-14T10:01:35;16.80;99.90
45435;DHT22;31183;47.404;8.500;2023-05-14T10:04:05;16.70;99.90
45435;DHT22;31183;47.404;8.500;2023-05-14T10:06:36;16.70;99.90
45435;DHT22;31183;47.404;8.500;2023-05-14T10:09:04;16.60;99.90
45435;DHT22;31183;47.404;8.500;2023-05-14T10:11:34;16.40;99.90
45435;DHT22;31183;47.404;8.500;2023-05-14T10:14:07;16.30;99.90
45435;DHT22;31183;47.404;8.500;2023-05-14T10:16:38;16.30;99.90
45435;DHT22;31183;47.404;8.500;2023-05-14T10:19:10;16.20;99.90
45435;DHT22;31183;47.404;8.500;2023-05-14T10:21:39;16.10;99.90
45435;DHT22;31183;47.404;8.500;2023-05-14T10:24:07;16.00;99.90
45435;DHT22;31183;47.404;8.500;2023-05-14T10:26:37;16.00;99.90
45435;DHT22;31183;47.404;8.500;2023-05-14T10:29:05;16.10;99.90
45435;DHT22;31183;47.404;8.500;2023-05-14T10:31:51;16.10;99.90
45435;DHT22;31183;47.404;8.500;2023-05-14T10:37:24;16.10;99.90
45435;DHT22;31183;47.404;8.500;2023-05-14T10:39:53;16.10;99.90
45435;DHT22;31183;47.404;8.500;2023-05-14T10:42:22;16.10;99.90
45435;DHT22;31183;47.404;8.500;2023-05-14T10:44:55;16.20;99.90
45435;DHT22;31183;47.404;8.500;2023-05-14T10:47:27;16.20;99.90
45435;DHT22;31183;47.404;8.500;2023-05-14T10:49:56;16.20;99.90
45435;DHT22;31183;47.404;8.500;2023-05-14T10:52:24;16.20;99.90
45435;DHT22;31183;47.404;8.500;2023-05-14T10:54:54;16.20;99.90
45435;DHT22;31183;47.404;8.500;2023-05-14T10:57:23;16.20;99.90
45435;DHT22;31183;47.404;8.500;2023-05-14T10:59:52;16.30;99.90
45435;DHT22;31183;47.404;8.500;2023-05-14T11:02:21;16.30;99.90
45435;DHT22;31183;47.404;8.500;2023-05-14T11:05:01;16.40;99.90
45435;DHT22;31183;47.404;8.500;2023-05-14T11:07:36;16.60;99.90
45435;DHT22;31183;47.404;8.500;2023-05-14T11:10:05;16.60;99.90
45435;DHT22;31183;47.404;8.500;2023-05-14T11:12:54;16.60;99.90
45435;DHT22;31183;47.404;8.500;2023-05-14T11:15:21;16.80;99.90
45435;DHT22;31183;47.404;8.500;2023-05-14T11:17:49;17.00;99.50
45435;DHT22;31183;47.404;8.500;2023-05-14T11:20:17;17.00;99.90
45435;DHT22;31183;47.404;8.500;2023-05-14T11:22:46;17.10;99.90
45435;DHT22;31183;47.404;8.500;2023-05-14T11:25:13;17.00;99.60
45435;DHT22;31183;47.404;8.500;2023-05-14T11:27:42;16.90;99.70
45435;DHT22;31183;47.404;8.500;2023-05-14T11:30:17;16.70;99.90
45435;DHT22;31183;47.404;8.500;2023-05-14T11:32:45;16.50;99.90
45435;DHT22;31183;47.404;8.500;2023-05-14T11:35:13;16.40;99.90
45435;DHT22;31183;47.404;8.500;2023-05-14T11:37:41;16.30;99.90
45435;DHT22;31183;47.404;8.500;2023-05-14T11:40:13;16.30;99.90
45435;DHT22;31183;47.404;8.500;2023-05-14T11:42:41;16.30;99.90
45435;DHT22;31183;47.404;8.500;2023-05-14T11:45:12;16.20;99.90
45435;DHT22;31183;47.404;8.500;2023-05-14T11:47:40;16.20;99.90
45435;DHT22;31183;47.404;8.500;2023-05-14T11:50:07;16.20;99.90
45435;DHT22;31183;47.404;8.500;2023-05-14T11:52:39;16.20;99.90
45435;DHT22;31183;47.404;8.500;2023-05-14T11:55:10;16.20;99.90
45435;DHT22;31183;47.404;8.500;2023-05-14T11:57:37;16.20;99.90
45435;DHT22;31183;47.404;8.500;2023-05-14T12:00:07;16.20;99.90
45435;DHT22;31183;47.404;8.500;2023-05-14T12:02:35;16.20;99.90
45435;DHT22;31183;47.404;8.500;2023-05-14T12:05:04;16.20;99.90
45435;DHT22;31183;47.404;8.500;2023-05-14T12:07:32;16.20;99.90
45435;DHT22;31183;47.404;8.500;2023-05-14T12:10:01;16.30;99.90
45435;DHT22;31183;47.404;8.500;2023-05-14T12:12:34;16.30;99.90
45435;DHT22;31183;47.404;8.500;2023-05-14T12:15:01;16.20;99.90
45435;DHT22;31183;47.404;8.500;2023-05-14T12:17:27;16.00;99.90
45435;DHT22;31183;47.404;8.500;2023-05-14T12:19:56;15.90;99.90
45435;DHT22;31183;47.404;8.500;2023-05-14T12:22:22;15.80;99.90
45435;DHT22;31183;47.404;8.500;2023-05-14T12:24:53;15.50;99.90
45435;DHT22;31183;47.404;8.500;2023-05-14T12:27:24;15.50;99.90
45435;DHT22;31183;47.404;8.500;2023-05-14T12:29:58;15.40;99.90
45435;DHT22;31183;47.404;8.500;2023-05-14T12:32:45;15.20;99.90
45435;DHT22;31183;47.404;8.500;2023-05-14T12:35:12;15.20;99.90
45435;DHT22;31183;47.404;8.500;2023-05-14T12:37:38;15.10;99.90
45435;DHT22;31183;47.404;8.500;2023-05-14T12:40:06;15.00;99.90
45435;DHT22;31183;47.404;8.500;2023-05-14T12:42:35;15.00;99.90
45435;DHT22;31183;47.404;8.500;2023-05-14T12:45:02;14.90;99.90
45435;DHT22;31183;47.404;8.500;2023-05-14T12:47:32;14.80;99.90
45435;DHT22;31183;47.404;8.500;2023-05-14T12:49:59;14.80;99.90
45435;DHT22;31183;47.404;8.500;2023-05-14T12:52:25;14.90;99.90
45435;DHT22;31183;47.404;8.500;2023-05-14T12:55:06;15.00;99.90
45435;DHT22;31183;47.404;8.500;2023-05-14T12:57:32;15.10;99.90
45435;DHT22;31183;47.404;8.500;2023-05-14T13:00:01;15.20;99.90
45435;DHT22;31183;47.404;8.500;2023-05-14T13:02:31;15.20;99.90
45435;DHT22;31183;47.404;8.500;2023-05-14T13:04:58;15.20;99.90
45435;DHT22;31183;47.404;8.500;2023-05-14T13:07:25;15.20;99.90
45435;DHT22;31183;47.404;8.500;2023-05-14T13:09:52;15.00;99.90
45435;DHT22;31183;47.404;8.500;2023-05-14T13:12:18;15.00;99.90
45435;DHT22;31183;47.404;8.500;2023-05-14T13:14:45;15.10;99.90
45435;DHT22;31183;47.404;8.500;2023-05-14T13:17:11;15.10;99.90
45435;DHT22;31183;47.404;8.500;2023-05-14T13:19:38;15.10;99.90
45435;DHT22;31183;47.404;8.500;2023-05-14T13:22:04;15.30;99.90
45435;DHT22;31183;47.404;8.500;2023-05-14T13:24:33;15.20;99.90
45435;DHT22;31183;47.404;8.500;2023-05-14T13:26:59;15.20;99.90
45435;DHT22;31183;47.404;8.500;2023-05-14T13:29:26;15.30;99.90
45435;DHT22;31183;47.404;8.500;2023-05-14T13:31:55;15.30;99.90
45435;DHT22;31183;47.404;8.500;2023-05-14T13:34:21;15.20;99.90
45435;DHT22;31183;47.404;8.500;2023-05-14T13:36:48;15.10;99.90
45435;DHT22;31183;47.404;8.500;2023-05-14T13:39:15;15.20;99.90
45435;DHT22;31183;47.404;8.500;2023-05-14T13:41:41;15.10;99.90
45435;DHT22;31183;47.404;8.500;2023-05-14T13:44:08;15.20;99.90
45435;DHT22;31183;47.404;8.500;2023-05-14T13:46:35;15.30;99.90
45435;DHT22;31183;47.404;8.500;2023-05-14T13:49:01;15.20;99.90
45435;DHT22;31183;47.404;8.500;2023-05-14T13:51:28;15.20;99.90
45435;DHT22;31183;47.404;8.500;2023-05-14T13:53:54;15.20;99.90
45435;DHT22;31183;47.404;8.500;2023-05-14T13:56:22;15.10;99.90
45435;DHT22;31183;47.404;8.500;2023-05-14T13:58:48;15.10;99.90
45435;DHT22;31183;47.404;8.500;2023-05-14T14:01:15;15.30;99.90
45435;DHT22;31183;47.404;8.500;2023-05-14T14:03:42;15.30;99.90
45435;DHT22;31183;47.404;8.500;2023-05-14T14:06:08;15.40;99.90
45435;DHT22;31183;47.404;8.500;2023-05-14T14:08:35;15.50;99.90
45435;DHT22;31183;47.404;8.500;2023-05-14T14:11:02;15.60;99.90
45435;DHT22;31183;47.404;8.500;2023-05-14T14:13:28;15.60;99.90
45435;DHT22;31183;47.404;8.500;2023-05-14T14:15:55;15.60;99.90
45435;DHT22;31183;47.404;8.500;2023-05-14T14:18:22;15.50;99.90
45435;DHT22;31183;47.404;8.500;2023-05-14T14:20:48;15.40;99.90
45435;DHT22;31183;47.404;8.500;2023-05-14T14:23:15;15.40;99.90
45435;DHT22;31183;47.404;8.500;2023-05-14T14:25:41;15.50;99.90
45435;DHT22;31183;47.404;8.500;2023-05-14T14:28:08;15.50;99.90
45435;DHT22;31183;47.404;8.500;2023-05-14T14:30:35;15.60;99.90
45435;DHT22;31183;47.404;8.500;2023-05-14T14:33:02;15.60;99.90
45435;DHT22;31183;47.404;8.500;2023-05-14T14:35:29;15.60;99.90
45435;DHT22;31183;47.404;8.500;2023-05-14T14:37:56;15.60;99.90
45435;DHT22;31183;47.404;8.500;2023-05-14T14:40:22;15.60;99.90
45435;DHT22;31183;47.404;8.500;2023-05-14T14:42:49;15.70;99.90
45435;DHT22;31183;47.404;8.500;2023-05-14T14:45:16;15.60;99.90
45435;DHT22;31183;47.404;8.500;2023-05-14T14:47:44;15.70;99.90
45435;DHT22;31183;47.404;8.500;2023-05-14T14:50:12;15.70;99.90
45435;DHT22;31183;47.404;8.500;2023-05-14T14:52:39;15.80;99.90
45435;DHT22;31183;47.404;8.500;2023-05-14T14:55:11;15.80;99.90
45435;DHT22;31183;47.404;8.500;2023-05-14T14:57:38;15.70;99.90
45435;DHT22;31183;47.404;8.500;2023-05-14T15:00:05;15.70;99.90
45435;DHT22;31183;47.404;8.500;2023-05-14T15:02:32;15.60;99.90
45435;DHT22;31183;47.404;8.500;2023-05-14T15:04:59;15.50;99.90
45435;DHT22;31183;47.404;8.500;2023-05-14T15:07:25;15.40;99.90
45435;DHT22;31183;47.404;8.500;2023-05-14T15:09:52;15.30;99.90
45435;DHT22;31183;47.404;8.500;2023-05-14T15:12:18;15.30;99.90
45435;DHT22;31183;47.404;8.500;2023-05-14T15:14:45;15.30;99.90
45435;DHT22;31183;47.404;8.500;2023-05-14T15:17:12;15.20;99.90
45435;DHT22;31183;47.404;8.500;2023-05-14T15:19:38;14.70;99.90
45435;DHT22;31183;47.404;8.500;2023-05-14T15:22:05;14.40;99.90
45435;DHT22;31183;47.404;8.500;2023-05-14T15:24:31;14.30;99.90
45435;DHT22;31183;47.404;8.500;2023-05-14T15:26:58;14.20;99.90
45435;DHT22;31183;47.404;8.500;2023-05-14T15:29:24;14.20;99.90
45435;DHT22;31183;47.404;8.500;2023-05-14T15:31:51;14.30;99.90
45435;DHT22;31183;47.404;8.500;2023-05-14T15:34:18;14.30;99.90
45435;DHT22;31183;47.404;8.500;2023-05-14T15:36:44;14.40;99.90
45435;DHT22;31183;47.404;8.500;2023-05-14T15:39:11;14.20;99.90
45435;DHT22;31183;47.404;8.500;2023-05-14T15:41:38;14.20;99.90
45435;DHT22;31183;47.404;8.500;2023-05-14T15:44:04;14.20;99.90